KCOT

Details ICAO KCOT (COT)
Name COTULLA LASALLE CO
Region United States
Timezone America/Chicago (UTC-6.0)
Plans Departing 1
Arriving 2
Stats Elevation 474 ft / 144 m (AMSL)
Location 28.456694° -99.218335°
Runways 1
Magnetic Variation 4.634° E
Sunrise 2017-12-12 13:21:25 UTC / 2017-12-12 07:21:25 Local
Sunset 2017-12-12 23:42:54 UTC / 2017-12-12 17:42:54 Local
Advertisement - Login to hide

Runways

ID Width Length Bearing (true) Bearing (mag) Surface Threshold Offset Overrun Length
13 75 ft / 23 m 5,010 ft / 1,527 m 134.66° 130.03° Asphalt 0 ft / 0 m 0 ft / 0 m
31 75 ft / 23 m 5,010 ft / 1,527 m 314.66° 310.03° Asphalt 0 ft / 0 m 0 ft / 0 m

Map

Weather


0- 5 10 15 20 25 30 35+ Temperature / ° C

Clouds and Precipitation
Forecast for 2017-12-13 06:00 UTC. Updated 42 minutes ago

Ground ~20,000 ft ~40,000 ft Winds

METAR

KCOT 130553Z AUTO 06005KT 10SM CLR 08/01 A3026 RMK AO2 SLP243 T00780011 10144 20061 402060056 58008

TAF

Not found

Frequencies

Recorded 134.07 MHz ASOS
Unicom 122.70 MHz CTAF/UNICOM
Warning: Do not use this data for real-world aviation or navigation. No guarantee of current accuracy is given.